sensor_id;sensor_type;location;lat;lon;timestamp;P1;durP1;ratioP1;P2;durP2;ratioP2
79566;SDS011;69030;48.126;7.816;2024-01-30T00:02:15;10.15;;;5.68;;
79566;SDS011;69030;48.126;7.816;2024-01-30T00:04:41;10.75;;;5.80;;
79566;SDS011;69030;48.126;7.816;2024-01-30T00:07:06;13.23;;;6.75;;
79566;SDS011;69030;48.126;7.816;2024-01-30T00:09:31;8.98;;;5.68;;
79566;SDS011;69030;48.126;7.816;2024-01-30T00:11:57;12.57;;;6.70;;
79566;SDS011;69030;48.126;7.816;2024-01-30T00:14:22;8.77;;;6.68;;
79566;SDS011;69030;48.126;7.816;2024-01-30T00:16:48;9.30;;;5.40;;
79566;SDS011;69030;48.126;7.816;2024-01-30T00:19:14;9.70;;;5.93;;
79566;SDS011;69030;48.126;7.816;2024-01-30T00:21:39;12.05;;;6.60;;
79566;SDS011;69030;48.126;7.816;2024-01-30T00:24:04;12.55;;;6.68;;
79566;SDS011;69030;48.126;7.816;2024-01-30T00:26:30;11.55;;;6.97;;
79566;SDS011;69030;48.126;7.816;2024-01-30T00:28:55;13.30;;;6.78;;
79566;SDS011;69030;48.126;7.816;2024-01-30T00:31:21;11.10;;;6.60;;
79566;SDS011;69030;48.126;7.816;2024-01-30T00:33:48;11.98;;;7.13;;
79566;SDS011;69030;48.126;7.816;2024-01-30T00:36:14;10.98;;;7.10;;
79566;SDS011;69030;48.126;7.816;2024-01-30T00:38:39;10.30;;;6.40;;
79566;SDS011;69030;48.126;7.816;2024-01-30T00:41:06;15.68;;;7.57;;
79566;SDS011;69030;48.126;7.816;2024-01-30T00:43:32;15.27;;;7.18;;
79566;SDS011;69030;48.126;7.816;2024-01-30T00:45:58;13.43;;;6.50;;
79566;SDS011;69030;48.126;7.816;2024-01-30T00:48:23;13.05;;;6.47;;
79566;SDS011;69030;48.126;7.816;2024-01-30T00:50:49;12.88;;;7.45;;
79566;SDS011;69030;48.126;7.816;2024-01-30T00:53:16;11.50;;;6.32;;
79566;SDS011;69030;48.126;7.816;2024-01-30T00:55:45;10.43;;;6.10;;
79566;SDS011;69030;48.126;7.816;2024-01-30T00:58:10;12.30;;;6.18;;
79566;SDS011;69030;48.126;7.816;2024-01-30T01:00:35;12.35;;;6.55;;
79566;SDS011;69030;48.126;7.816;2024-01-30T01:03:01;9.52;;;6.65;;
79566;SDS011;69030;48.126;7.816;2024-01-30T01:05:27;10.75;;;5.93;;
79566;SDS011;69030;48.126;7.816;2024-01-30T01:07:52;8.23;;;5.53;;
79566;SDS011;69030;48.126;7.816;2024-01-30T01:10:17;10.98;;;5.50;;
79566;SDS011;69030;48.126;7.816;2024-01-30T01:12:44;8.88;;;5.05;;
79566;SDS011;69030;48.126;7.816;2024-01-30T01:15:10;8.77;;;5.43;;
79566;SDS011;69030;48.126;7.816;2024-01-30T01:17:36;12.20;;;5.75;;
79566;SDS011;69030;48.126;7.816;2024-01-30T01:20:02;8.68;;;5.63;;
79566;SDS011;69030;48.126;7.816;2024-01-30T01:22:30;7.47;;;3.97;;
79566;SDS011;69030;48.126;7.816;2024-01-30T01:24:55;10.35;;;4.90;;
79566;SDS011;69030;48.126;7.816;2024-01-30T01:27:21;8.38;;;4.38;;
79566;SDS011;69030;48.126;7.816;2024-01-30T01:29:46;7.22;;;3.92;;
79566;SDS011;69030;48.126;7.816;2024-01-30T01:32:12;7.07;;;3.70;;
79566;SDS011;69030;48.126;7.816;2024-01-30T01:34:37;6.75;;;3.65;;
79566;SDS011;69030;48.126;7.816;2024-01-30T01:37:03;6.25;;;4.00;;
79566;SDS011;69030;48.126;7.816;2024-01-30T01:39:28;5.93;;;3.40;;
79566;SDS011;69030;48.126;7.816;2024-01-30T01:41:55;5.00;;;3.47;;
79566;SDS011;69030;48.126;7.816;2024-01-30T01:44:20;4.53;;;3.15;;
79566;SDS011;69030;48.126;7.816;2024-01-30T01:46:46;5.65;;;3.72;;
79566;SDS011;69030;48.126;7.816;2024-01-30T01:49:12;6.32;;;3.58;;
79566;SDS011;69030;48.126;7.816;2024-01-30T01:51:37;6.63;;;3.83;;
79566;SDS011;69030;48.126;7.816;2024-01-30T01:54:04;5.10;;;2.70;;
79566;SDS011;69030;48.126;7.816;2024-01-30T01:56:30;6.32;;;3.53;;
79566;SDS011;69030;48.126;7.816;2024-01-30T01:58:57;7.57;;;3.75;;
79566;SDS011;69030;48.126;7.816;2024-01-30T02:01:25;6.25;;;3.42;;
79566;SDS011;69030;48.126;7.816;2024-01-30T02:03:51;6.30;;;3.63;;
79566;SDS011;69030;48.126;7.816;2024-01-30T02:06:16;4.35;;;2.38;;
79566;SDS011;69030;48.126;7.816;2024-01-30T02:08:42;3.60;;;2.15;;
79566;SDS011;69030;48.126;7.816;2024-01-30T02:11:08;7.07;;;2.83;;
79566;SDS011;69030;48.126;7.816;2024-01-30T02:13:35;6.82;;;3.33;;
79566;SDS011;69030;48.126;7.816;2024-01-30T02:16:00;4.10;;;1.92;;
79566;SDS011;69030;48.126;7.816;2024-01-30T02:18:27;7.00;;;3.90;;
79566;SDS011;69030;48.126;7.816;2024-01-30T02:20:53;4.15;;;2.28;;
79566;SDS011;69030;48.126;7.816;2024-01-30T02:23:19;5.80;;;1.95;;
79566;SDS011;69030;48.126;7.816;2024-01-30T02:25:45;4.55;;;2.13;;
79566;SDS011;69030;48.126;7.816;2024-01-30T02:28:14;3.95;;;2.35;;
79566;SDS011;69030;48.126;7.816;2024-01-30T02:30:39;4.82;;;2.63;;
79566;SDS011;69030;48.126;7.816;2024-01-30T02:33:06;3.33;;;2.65;;
79566;SDS011;69030;48.126;7.816;2024-01-30T02:35:32;6.65;;;3.35;;
79566;SDS011;69030;48.126;7.816;2024-01-30T02:37:59;3.65;;;2.30;;
79566;SDS011;69030;48.126;7.816;2024-01-30T02:40:24;3.80;;;2.03;;
79566;SDS011;69030;48.126;7.816;2024-01-30T02:42:50;3.92;;;2.90;;
79566;SDS011;69030;48.126;7.816;2024-01-30T02:45:15;5.30;;;2.70;;
79566;SDS011;69030;48.126;7.816;2024-01-30T02:47:40;5.32;;;3.13;;
79566;SDS011;69030;48.126;7.816;2024-01-30T02:50:06;5.60;;;3.00;;
79566;SDS011;69030;48.126;7.816;2024-01-30T02:52:31;4.80;;;2.20;;
79566;SDS011;69030;48.126;7.816;2024-01-30T02:54:58;6.80;;;2.55;;
79566;SDS011;69030;48.126;7.816;2024-01-30T02:57:25;3.55;;;2.15;;
79566;SDS011;69030;48.126;7.816;2024-01-30T02:59:51;5.28;;;3.08;;
79566;SDS011;69030;48.126;7.816;2024-01-30T03:02:16;6.53;;;3.45;;
79566;SDS011;69030;48.126;7.816;2024-01-30T03:04:42;4.40;;;2.92;;
79566;SDS011;69030;48.126;7.816;2024-01-30T03:07:07;3.30;;;2.35;;
79566;SDS011;69030;48.126;7.816;2024-01-30T03:09:33;4.95;;;2.78;;
79566;SDS011;69030;48.126;7.816;2024-01-30T03:11:58;5.43;;;3.00;;
79566;SDS011;69030;48.126;7.816;2024-01-30T03:14:24;3.42;;;2.60;;
79566;SDS011;69030;48.126;7.816;2024-01-30T03:16:49;5.05;;;2.88;;
79566;SDS011;69030;48.126;7.816;2024-01-30T03:19:14;7.53;;;3.38;;
79566;SDS011;69030;48.126;7.816;2024-01-30T03:21:40;3.58;;;3.17;;
79566;SDS011;69030;48.126;7.816;2024-01-30T03:24:05;7.47;;;3.70;;
79566;SDS011;69030;48.126;7.816;2024-01-30T03:26:32;5.43;;;3.47;;
79566;SDS011;69030;48.126;7.816;2024-01-30T03:28:57;6.60;;;2.95;;
79566;SDS011;69030;48.126;7.816;2024-01-30T03:31:22;5.70;;;3.20;;
79566;SDS011;69030;48.126;7.816;2024-01-30T03:33:48;6.32;;;3.00;;
79566;SDS011;69030;48.126;7.816;2024-01-30T03:36:14;5.18;;;2.72;;
79566;SDS011;69030;48.126;7.816;2024-01-30T03:38:41;5.53;;;2.75;;
79566;SDS011;69030;48.126;7.816;2024-01-30T03:41:09;6.78;;;3.78;;
79566;SDS011;69030;48.126;7.816;2024-01-30T03:43:35;4.75;;;3.65;;
79566;SDS011;69030;48.126;7.816;2024-01-30T03:46:01;4.93;;;3.25;;
79566;SDS011;69030;48.126;7.816;2024-01-30T03:48:27;4.93;;;3.15;;
79566;SDS011;69030;48.126;7.816;2024-01-30T03:50:52;6.82;;;2.78;;
79566;SDS011;69030;48.126;7.816;2024-01-30T03:53:17;5.80;;;3.75;;
79566;SDS011;69030;48.126;7.816;2024-01-30T03:55:43;6.18;;;3.30;;
79566;SDS011;69030;48.126;7.816;2024-01-30T03:58:08;4.38;;;2.95;;
79566;SDS011;69030;48.126;7.816;2024-01-30T04:00:34;5.00;;;2.95;;
79566;SDS011;69030;48.126;7.816;2024-01-30T04:02:59;4.90;;;3.67;;
79566;SDS011;69030;48.126;7.816;2024-01-30T04:05:30;4.40;;;2.55;;
79566;SDS011;69030;48.126;7.816;2024-01-30T04:07:55;6.05;;;5.22;;
79566;SDS011;69030;48.126;7.816;2024-01-30T04:10:21;5.20;;;2.80;;
79566;SDS011;69030;48.126;7.816;2024-01-30T04:12:46;4.97;;;2.70;;
79566;SDS011;69030;48.126;7.816;2024-01-30T04:15:12;4.57;;;3.15;;
79566;SDS011;69030;48.126;7.816;2024-01-30T04:17:39;6.03;;;3.17;;
79566;SDS011;69030;48.126;7.816;2024-01-30T04:20:05;4.88;;;2.75;;
79566;SDS011;69030;48.126;7.816;2024-01-30T04:22:30;4.68;;;3.03;;
79566;SDS011;69030;48.126;7.816;2024-01-30T04:24:56;9.60;;;4.18;;
79566;SDS011;69030;48.126;7.816;2024-01-30T04:27:23;5.32;;;3.00;;
79566;SDS011;69030;48.126;7.816;2024-01-30T04:29:48;6.38;;;3.83;;
79566;SDS011;69030;48.126;7.816;2024-01-30T04:32:13;4.78;;;3.22;;
79566;SDS011;69030;48.126;7.816;2024-01-30T04:34:39;4.50;;;3.03;;
79566;SDS011;69030;48.126;7.816;2024-01-30T04:37:05;4.65;;;2.92;;
79566;SDS011;69030;48.126;7.816;2024-01-30T04:39:32;6.10;;;3.30;;
79566;SDS011;69030;48.126;7.816;2024-01-30T04:41:58;4.47;;;3.22;;
79566;SDS011;69030;48.126;7.816;2024-01-30T04:44:24;5.78;;;3.90;;
79566;SDS011;69030;48.126;7.816;2024-01-30T04:46:51;6.82;;;3.65;;
79566;SDS011;69030;48.126;7.816;2024-01-30T04:49:16;5.20;;;3.40;;
79566;SDS011;69030;48.126;7.816;2024-01-30T04:51:42;9.05;;;3.35;;
79566;SDS011;69030;48.126;7.816;2024-01-30T04:54:08;4.47;;;2.53;;
79566;SDS011;69030;48.126;7.816;2024-01-30T04:56:35;5.65;;;2.75;;
79566;SDS011;69030;48.126;7.816;2024-01-30T04:59:01;3.72;;;2.47;;
79566;SDS011;69030;48.126;7.816;2024-01-30T05:01:27;4.90;;;2.85;;
79566;SDS011;69030;48.126;7.816;2024-01-30T05:03:53;5.18;;;3.13;;
79566;SDS011;69030;48.126;7.816;2024-01-30T05:06:25;7.03;;;3.20;;
79566;SDS011;69030;48.126;7.816;2024-01-30T05:08:51;5.93;;;3.53;;
79566;SDS011;69030;48.126;7.816;2024-01-30T05:11:16;5.93;;;3.08;;
79566;SDS011;69030;48.126;7.816;2024-01-30T05:13:42;6.25;;;3.67;;
79566;SDS011;69030;48.126;7.816;2024-01-30T05:16:07;5.60;;;3.90;;
79566;SDS011;69030;48.126;7.816;2024-01-30T05:18:34;11.02;;;5.07;;
79566;SDS011;69030;48.126;7.816;2024-01-30T05:20:59;7.10;;;3.50;;
79566;SDS011;69030;48.126;7.816;2024-01-30T05:23:24;8.48;;;3.45;;
79566;SDS011;69030;48.126;7.816;2024-01-30T05:25:50;5.68;;;3.55;;
79566;SDS011;69030;48.126;7.816;2024-01-30T05:28:15;6.13;;;3.97;;
79566;SDS011;69030;48.126;7.816;2024-01-30T05:30:41;5.85;;;4.47;;
79566;SDS011;69030;48.126;7.816;2024-01-30T05:33:07;8.32;;;3.50;;
79566;SDS011;69030;48.126;7.816;2024-01-30T05:35:32;4.80;;;3.70;;
79566;SDS011;69030;48.126;7.816;2024-01-30T05:37:58;7.13;;;4.68;;
79566;SDS011;69030;48.126;7.816;2024-01-30T05:40:23;7.68;;;4.53;;
79566;SDS011;69030;48.126;7.816;2024-01-30T05:42:49;6.55;;;4.35;;
79566;SDS011;69030;48.126;7.816;2024-01-30T05:45:14;5.80;;;3.53;;
79566;SDS011;69030;48.126;7.816;2024-01-30T05:47:39;6.65;;;3.92;;
79566;SDS011;69030;48.126;7.816;2024-01-30T05:50:05;10.65;;;5.95;;
79566;SDS011;69030;48.126;7.816;2024-01-30T05:52:31;7.68;;;4.82;;
79566;SDS011;69030;48.126;7.816;2024-01-30T05:54:56;5.97;;;3.83;;
79566;SDS011;69030;48.126;7.816;2024-01-30T05:57:22;6.82;;;4.78;;
79566;SDS011;69030;48.126;7.816;2024-01-30T05:59:47;6.78;;;3.35;;
79566;SDS011;69030;48.126;7.816;2024-01-30T06:02:13;15.88;;;3.97;;
79566;SDS011;69030;48.126;7.816;2024-01-30T06:04:38;4.65;;;2.65;;
79566;SDS011;69030;48.126;7.816;2024-01-30T06:07:04;7.40;;;3.38;;
79566;SDS011;69030;48.126;7.816;2024-01-30T06:09:31;5.95;;;3.33;;
79566;SDS011;69030;48.126;7.816;2024-01-30T06:11:57;5.05;;;2.75;;
79566;SDS011;69030;48.126;7.816;2024-01-30T06:14:22;4.35;;;3.00;;
79566;SDS011;69030;48.126;7.816;2024-01-30T06:16:49;3.05;;;2.15;;
79566;SDS011;69030;48.126;7.816;2024-01-30T06:19:14;4.53;;;2.30;;
79566;SDS011;69030;48.126;7.816;2024-01-30T06:21:40;4.28;;;2.90;;
79566;SDS011;69030;48.126;7.816;2024-01-30T06:24:05;4.53;;;2.85;;
79566;SDS011;69030;48.126;7.816;2024-01-30T06:26:30;5.57;;;3.22;;
79566;SDS011;69030;48.126;7.816;2024-01-30T06:28:56;6.53;;;3.65;;
79566;SDS011;69030;48.126;7.816;2024-01-30T06:31:21;9.80;;;4.00;;
79566;SDS011;69030;48.126;7.816;2024-01-30T06:33:47;7.25;;;3.40;;
79566;SDS011;69030;48.126;7.816;2024-01-30T06:36:12;10.02;;;4.75;;
79566;SDS011;69030;48.126;7.816;2024-01-30T06:38:38;8.02;;;4.20;;
79566;SDS011;69030;48.126;7.816;2024-01-30T06:41:03;8.30;;;4.20;;
79566;SDS011;69030;48.126;7.816;2024-01-30T06:43:29;6.43;;;3.33;;
79566;SDS011;69030;48.126;7.816;2024-01-30T06:45:54;5.13;;;3.50;;
79566;SDS011;69030;48.126;7.816;2024-01-30T06:48:20;6.05;;;3.45;;
79566;SDS011;69030;48.126;7.816;2024-01-30T06:50:45;5.75;;;1.75;;
79566;SDS011;69030;48.126;7.816;2024-01-30T06:53:11;4.05;;;2.42;;
79566;SDS011;69030;48.126;7.816;2024-01-30T06:55:36;4.20;;;2.88;;
79566;SDS011;69030;48.126;7.816;2024-01-30T06:58:02;6.13;;;2.97;;
79566;SDS011;69030;48.126;7.816;2024-01-30T07:00:28;10.48;;;3.20;;
79566;SDS011;69030;48.126;7.816;2024-01-30T07:02:53;7.80;;;4.07;;
79566;SDS011;69030;48.126;7.816;2024-01-30T07:05:18;5.95;;;3.45;;
79566;SDS011;69030;48.126;7.816;2024-01-30T07:07:44;6.75;;;3.40;;
79566;SDS011;69030;48.126;7.816;2024-01-30T07:10:09;6.07;;;2.92;;
79566;SDS011;69030;48.126;7.816;2024-01-30T07:12:35;3.42;;;2.67;;
79566;SDS011;69030;48.126;7.816;2024-01-30T07:15:00;5.53;;;2.50;;
79566;SDS011;69030;48.126;7.816;2024-01-30T07:17:27;4.40;;;2.97;;
79566;SDS011;69030;48.126;7.816;2024-01-30T07:19:52;5.13;;;3.00;;
79566;SDS011;69030;48.126;7.816;2024-01-30T07:22:18;4.78;;;2.55;;
79566;SDS011;69030;48.126;7.816;2024-01-30T07:24:46;4.25;;;3.63;;
79566;SDS011;69030;48.126;7.816;2024-01-30T07:27:14;3.75;;;2.95;;
79566;SDS011;69030;48.126;7.816;2024-01-30T07:29:39;3.95;;;2.47;;
79566;SDS011;69030;48.126;7.816;2024-01-30T07:32:05;7.80;;;2.88;;
79566;SDS011;69030;48.126;7.816;2024-01-30T07:34:30;7.63;;;3.50;;
79566;SDS011;69030;48.126;7.816;2024-01-30T07:36:56;9.82;;;3.28;;
79566;SDS011;69030;48.126;7.816;2024-01-30T07:39:22;4.55;;;3.38;;
79566;SDS011;69030;48.126;7.816;2024-01-30T07:41:47;6.97;;;4.03;;
79566;SDS011;69030;48.126;7.816;2024-01-30T07:44:12;6.55;;;3.10;;
79566;SDS011;69030;48.126;7.816;2024-01-30T07:46:38;6.68;;;2.67;;
79566;SDS011;69030;48.126;7.816;2024-01-30T07:49:03;4.68;;;3.00;;
79566;SDS011;69030;48.126;7.816;2024-01-30T07:51:29;4.22;;;2.40;;
79566;SDS011;69030;48.126;7.816;2024-01-30T07:53:56;9.52;;;4.90;;
79566;SDS011;69030;48.126;7.816;2024-01-30T07:56:22;11.38;;;5.85;;
79566;SDS011;69030;48.126;7.816;2024-01-30T07:58:47;5.07;;;2.78;;
79566;SDS011;69030;48.126;7.816;2024-01-30T08:01:14;3.65;;;2.83;;
79566;SDS011;69030;48.126;7.816;2024-01-30T08:03:40;4.43;;;3.00;;
79566;SDS011;69030;48.126;7.816;2024-01-30T08:06:06;7.38;;;3.55;;
79566;SDS011;69030;48.126;7.816;2024-01-30T08:08:32;4.32;;;3.05;;
79566;SDS011;69030;48.126;7.816;2024-01-30T08:10:57;5.13;;;3.47;;
79566;SDS011;69030;48.126;7.816;2024-01-30T08:13:23;4.63;;;2.78;;
79566;SDS011;69030;48.126;7.816;2024-01-30T08:15:48;9.10;;;3.97;;
79566;SDS011;69030;48.126;7.816;2024-01-30T08:18:13;7.97;;;4.22;;
79566;SDS011;69030;48.126;7.816;2024-01-30T08:20:38;6.88;;;3.53;;
79566;SDS011;69030;48.126;7.816;2024-01-30T08:23:04;5.63;;;4.13;;
79566;SDS011;69030;48.126;7.816;2024-01-30T08:25:29;6.53;;;3.40;;
79566;SDS011;69030;48.126;7.816;2024-01-30T08:27:55;9.00;;;5.03;;
79566;SDS011;69030;48.126;7.816;2024-01-30T08:30:20;8.43;;;4.10;;
79566;SDS011;69030;48.126;7.816;2024-01-30T08:32:45;7.18;;;4.55;;
79566;SDS011;69030;48.126;7.816;2024-01-30T08:35:12;6.57;;;4.53;;
79566;SDS011;69030;48.126;7.816;2024-01-30T08:37:39;10.13;;;3.42;;
79566;SDS011;69030;48.126;7.816;2024-01-30T08:40:05;7.43;;;4.07;;
79566;SDS011;69030;48.126;7.816;2024-01-30T08:42:33;7.30;;;3.72;;
79566;SDS011;69030;48.126;7.816;2024-01-30T08:44:58;4.45;;;3.05;;
79566;SDS011;69030;48.126;7.816;2024-01-30T08:47:24;7.65;;;3.67;;
79566;SDS011;69030;48.126;7.816;2024-01-30T08:49:50;7.07;;;2.92;;
79566;SDS011;69030;48.126;7.816;2024-01-30T08:52:15;6.80;;;3.53;;
79566;SDS011;69030;48.126;7.816;2024-01-30T08:54:41;5.05;;;3.78;;
79566;SDS011;69030;48.126;7.816;2024-01-30T08:57:06;3.85;;;2.40;;
79566;SDS011;69030;48.126;7.816;2024-01-30T08:59:32;5.13;;;3.30;;
79566;SDS011;69030;48.126;7.816;2024-01-30T09:01:59;5.20;;;2.08;;
79566;SDS011;69030;48.126;7.816;2024-01-30T09:04:24;6.22;;;2.38;;
79566;SDS011;69030;48.126;7.816;2024-01-30T09:06:50;4.88;;;2.45;;
79566;SDS011;69030;48.126;7.816;2024-01-30T09:09:15;4.40;;;2.65;;
79566;SDS011;69030;48.126;7.816;2024-01-30T09:11:41;7.07;;;3.40;;
79566;SDS011;69030;48.126;7.816;2024-01-30T09:14:06;7.38;;;5.32;;
79566;SDS011;69030;48.126;7.816;2024-01-30T09:16:32;8.45;;;4.25;;
79566;SDS011;69030;48.126;7.816;2024-01-30T09:18:57;10.63;;;4.93;;
79566;SDS011;69030;48.126;7.816;2024-01-30T09:21:23;9.35;;;3.25;;
79566;SDS011;69030;48.126;7.816;2024-01-30T09:23:49;5.85;;;2.72;;
79566;SDS011;69030;48.126;7.816;2024-01-30T09:26:15;11.13;;;3.05;;
79566;SDS011;69030;48.126;7.816;2024-01-30T09:28:40;8.35;;;4.45;;
79566;SDS011;69030;48.126;7.816;2024-01-30T09:31:10;5.47;;;3.10;;
79566;SDS011;69030;48.126;7.816;2024-01-30T09:33:36;6.68;;;2.63;;
79566;SDS011;69030;48.126;7.816;2024-01-30T09:36:02;6.57;;;2.45;;
79566;SDS011;69030;48.126;7.816;2024-01-30T09:38:27;3.95;;;2.08;;
79566;SDS011;69030;48.126;7.816;2024-01-30T09:40:55;6.97;;;2.13;;
79566;SDS011;69030;48.126;7.816;2024-01-30T09:43:22;3.35;;;2.20;;
79566;SDS011;69030;48.126;7.816;2024-01-30T09:45:48;7.10;;;2.17;;
79566;SDS011;69030;48.126;7.816;2024-01-30T09:48:16;3.72;;;1.73;;
79566;SDS011;69030;48.126;7.816;2024-01-30T09:50:42;3.05;;;1.70;;
79566;SDS011;69030;48.126;7.816;2024-01-30T09:53:08;4.63;;;1.95;;
79566;SDS011;69030;48.126;7.816;2024-01-30T09:55:35;2.22;;;1.48;;
79566;SDS011;69030;48.126;7.816;2024-01-30T09:58:01;5.30;;;2.60;;
79566;SDS011;69030;48.126;7.816;2024-01-30T10:00:27;3.17;;;2.08;;
79566;SDS011;69030;48.126;7.816;2024-01-30T10:02:52;4.05;;;1.30;;
79566;SDS011;69030;48.126;7.816;2024-01-30T10:05:18;6.30;;;3.15;;
79566;SDS011;69030;48.126;7.816;2024-01-30T10:07:54;16.15;;;5.90;;
79566;SDS011;69030;48.126;7.816;2024-01-30T10:10:23;7.00;;;3.25;;
79566;SDS011;69030;48.126;7.816;2024-01-30T10:12:49;11.85;;;4.88;;
79566;SDS011;69030;48.126;7.816;2024-01-30T10:15:14;7.15;;;3.10;;
79566;SDS011;69030;48.126;7.816;2024-01-30T10:17:46;6.00;;;1.48;;
79566;SDS011;69030;48.126;7.816;2024-01-30T10:20:12;3.40;;;1.30;;
79566;SDS011;69030;48.126;7.816;2024-01-30T10:22:38;3.53;;;2.25;;
79566;SDS011;69030;48.126;7.816;2024-01-30T10:25:05;6.18;;;1.77;;
79566;SDS011;69030;48.126;7.816;2024-01-30T10:27:32;3.13;;;1.52;;
79566;SDS011;69030;48.126;7.816;2024-01-30T10:29:58;3.70;;;3.05;;
79566;SDS011;69030;48.126;7.816;2024-01-30T10:32:23;2.45;;;1.52;;
79566;SDS011;69030;48.126;7.816;2024-01-30T10:34:49;3.13;;;2.22;;
79566;SDS011;69030;48.126;7.816;2024-01-30T10:37:15;5.07;;;2.05;;
79566;SDS011;69030;48.126;7.816;2024-01-30T10:39:43;2.63;;;1.30;;
79566;SDS011;69030;48.126;7.816;2024-01-30T10:42:11;3.47;;;1.60;;
79566;SDS011;69030;48.126;7.816;2024-01-30T10:44:41;2.42;;;1.63;;
79566;SDS011;69030;48.126;7.816;2024-01-30T10:47:55;5.80;;;2.30;;
79566;SDS011;69030;48.126;7.816;2024-01-30T10:50:26;3.92;;;1.77;;
79566;SDS011;69030;48.126;7.816;2024-01-30T10:52:53;5.05;;;2.15;;
79566;SDS011;69030;48.126;7.816;2024-01-30T10:55:19;3.67;;;2.00;;
79566;SDS011;69030;48.126;7.816;2024-01-30T10:57:47;3.55;;;1.83;;
79566;SDS011;69030;48.126;7.816;2024-01-30T11:00:14;5.35;;;1.98;;
79566;SDS011;69030;48.126;7.816;2024-01-30T11:02:43;2.60;;;1.50;;
79566;SDS011;69030;48.126;7.816;2024-01-30T11:05:10;5.78;;;2.35;;
79566;SDS011;69030;48.126;7.816;2024-01-30T11:07:38;2.22;;;1.92;;
79566;SDS011;69030;48.126;7.816;2024-01-30T11:10:05;4.20;;;2.42;;
79566;SDS011;69030;48.126;7.816;2024-01-30T11:12:37;2.72;;;1.70;;
79566;SDS011;69030;48.126;7.816;2024-01-30T11:20:10;2.10;;;1.15;;
79566;SDS011;69030;48.126;7.816;2024-01-30T11:22:36;8.40;;;5.07;;
79566;SDS011;69030;48.126;7.816;2024-01-30T11:25:02;3.78;;;1.85;;
79566;SDS011;69030;48.126;7.816;2024-01-30T11:27:28;3.33;;;1.70;;
79566;SDS011;69030;48.126;7.816;2024-01-30T11:30:00;2.72;;;1.25;;
79566;SDS011;69030;48.126;7.816;2024-01-30T11:32:29;4.35;;;1.92;;
79566;SDS011;69030;48.126;7.816;2024-01-30T11:34:55;2.80;;;1.85;;
79566;SDS011;69030;48.126;7.816;2024-01-30T11:37:20;2.65;;;1.88;;
79566;SDS011;69030;48.126;7.816;2024-01-30T11:39:46;1.92;;;1.00;;
79566;SDS011;69030;48.126;7.816;2024-01-30T11:42:13;2.95;;;1.63;;
79566;SDS011;69030;48.126;7.816;2024-01-30T11:44:38;4.78;;;1.73;;
79566;SDS011;69030;48.126;7.816;2024-01-30T11:47:04;4.20;;;1.42;;
79566;SDS011;69030;48.126;7.816;2024-01-30T11:49:29;3.55;;;1.00;;
79566;SDS011;69030;48.126;7.816;2024-01-30T11:51:54;2.58;;;1.58;;
79566;SDS011;69030;48.126;7.816;2024-01-30T11:54:20;3.85;;;1.20;;
79566;SDS011;69030;48.126;7.816;2024-01-30T11:56:45;5.05;;;1.73;;
79566;SDS011;69030;48.126;7.816;2024-01-30T11:59:11;3.05;;;1.65;;
79566;SDS011;69030;48.126;7.816;2024-01-30T12:01:36;3.38;;;1.90;;
79566;SDS011;69030;48.126;7.816;2024-01-30T12:04:02;3.72;;;1.70;;
79566;SDS011;69030;48.126;7.816;2024-01-30T12:06:28;5.60;;;2.13;;
79566;SDS011;69030;48.126;7.816;2024-01-30T12:11:26;4.32;;;2.20;;
79566;SDS011;69030;48.126;7.816;2024-01-30T12:13:55;3.85;;;1.65;;
79566;SDS011;69030;48.126;7.816;2024-01-30T12:16:20;5.32;;;1.75;;
79566;SDS011;69030;48.126;7.816;2024-01-30T12:18:46;3.63;;;2.13;;
79566;SDS011;69030;48.126;7.816;2024-01-30T12:21:11;6.05;;;2.25;;
79566;SDS011;69030;48.126;7.816;2024-01-30T12:23:37;3.88;;;2.22;;
79566;SDS011;69030;48.126;7.816;2024-01-30T12:26:03;4.07;;;2.10;;
79566;SDS011;69030;48.126;7.816;2024-01-30T12:28:32;4.57;;;2.10;;
79566;SDS011;69030;48.126;7.816;2024-01-30T12:31:02;4.35;;;2.28;;
79566;SDS011;69030;48.126;7.816;2024-01-30T12:33:28;4.75;;;1.58;;
79566;SDS011;69030;48.126;7.816;2024-01-30T12:35:55;6.25;;;1.95;;
79566;SDS011;69030;48.126;7.816;2024-01-30T12:38:22;3.83;;;2.33;;
79566;SDS011;69030;48.126;7.816;2024-01-30T12:40:49;5.03;;;2.15;;
79566;SDS011;69030;48.126;7.816;2024-01-30T12:43:16;5.72;;;2.03;;
79566;SDS011;69030;48.126;7.816;2024-01-30T12:45:41;6.35;;;2.17;;
79566;SDS011;69030;48.126;7.816;2024-01-30T12:48:07;3.55;;;2.50;;
79566;SDS011;69030;48.126;7.816;2024-01-30T12:50:34;3.88;;;1.70;;
79566;SDS011;69030;48.126;7.816;2024-01-30T12:52:59;4.70;;;2.03;;
79566;SDS011;69030;48.126;7.816;2024-01-30T12:55:25;5.00;;;2.05;;
79566;SDS011;69030;48.126;7.816;2024-01-30T12:57:53;5.45;;;2.33;;
79566;SDS011;69030;48.126;7.816;2024-01-30T13:00:19;4.82;;;2.35;;
79566;SDS011;69030;48.126;7.816;2024-01-30T13:02:45;4.10;;;1.70;;
79566;SDS011;69030;48.126;7.816;2024-01-30T13:05:13;9.02;;;1.50;;
79566;SDS011;69030;48.126;7.816;2024-01-30T13:07:42;3.13;;;1.95;;
79566;SDS011;69030;48.126;7.816;2024-01-30T13:10:08;2.33;;;1.67;;
79566;SDS011;69030;48.126;7.816;2024-01-30T13:12:33;3.60;;;2.63;;
79566;SDS011;69030;48.126;7.816;2024-01-30T13:15:03;3.65;;;2.03;;
79566;SDS011;69030;48.126;7.816;2024-01-30T13:17:30;3.42;;;1.35;;
79566;SDS011;69030;48.126;7.816;2024-01-30T13:19:56;4.75;;;2.03;;
79566;SDS011;69030;48.126;7.816;2024-01-30T13:22:23;4.10;;;1.85;;
79566;SDS011;69030;48.126;7.816;2024-01-30T13:24:49;5.65;;;1.95;;
79566;SDS011;69030;48.126;7.816;2024-01-30T13:27:15;3.38;;;1.67;;
79566;SDS011;69030;48.126;7.816;2024-01-30T13:29:40;3.97;;;1.98;;
79566;SDS011;69030;48.126;7.816;2024-01-30T13:32:06;4.53;;;1.95;;
79566;SDS011;69030;48.126;7.816;2024-01-30T13:34:33;4.13;;;1.83;;
79566;SDS011;69030;48.126;7.816;2024-01-30T13:37:01;4.90;;;2.22;;
79566;SDS011;69030;48.126;7.816;2024-01-30T13:39:27;4.32;;;2.30;;
79566;SDS011;69030;48.126;7.816;2024-01-30T13:41:54;3.33;;;1.27;;
79566;SDS011;69030;48.126;7.816;2024-01-30T13:44:19;2.83;;;2.45;;
79566;SDS011;69030;48.126;7.816;2024-01-30T13:46:45;5.35;;;2.45;;
79566;SDS011;69030;48.126;7.816;2024-01-30T13:49:11;8.07;;;3.28;;
79566;SDS011;69030;48.126;7.816;2024-01-30T13:51:37;5.45;;;2.72;;
79566;SDS011;69030;48.126;7.816;2024-01-30T13:54:05;4.78;;;2.42;;
79566;SDS011;69030;48.126;7.816;2024-01-30T13:56:30;3.47;;;2.38;;
79566;SDS011;69030;48.126;7.816;2024-01-30T13:58:56;7.97;;;2.13;;
79566;SDS011;69030;48.126;7.816;2024-01-30T14:01:22;6.72;;;2.00;;
79566;SDS011;69030;48.126;7.816;2024-01-30T14:03:51;3.17;;;1.88;;
79566;SDS011;69030;48.126;7.816;2024-01-30T14:06:16;3.25;;;1.95;;
79566;SDS011;69030;48.126;7.816;2024-01-30T14:08:44;3.58;;;2.03;;
79566;SDS011;69030;48.126;7.816;2024-01-30T14:11:09;2.90;;;1.33;;
79566;SDS011;69030;48.126;7.816;2024-01-30T14:13:34;3.47;;;1.95;;
79566;SDS011;69030;48.126;7.816;2024-01-30T14:16:00;4.25;;;1.80;;
79566;SDS011;69030;48.126;7.816;2024-01-30T14:18:25;3.05;;;1.67;;
79566;SDS011;69030;48.126;7.816;2024-01-30T14:20:51;4.25;;;2.33;;
79566;SDS011;69030;48.126;7.816;2024-01-30T14:23:16;5.65;;;1.50;;
79566;SDS011;69030;48.126;7.816;2024-01-30T14:25:42;4.43;;;2.42;;
79566;SDS011;69030;48.126;7.816;2024-01-30T14:28:09;4.53;;;2.33;;
79566;SDS011;69030;48.126;7.816;2024-01-30T14:30:35;5.85;;;2.70;;
79566;SDS011;69030;48.126;7.816;2024-01-30T14:33:00;4.63;;;2.30;;
79566;SDS011;69030;48.126;7.816;2024-01-30T14:35:26;4.65;;;1.88;;
79566;SDS011;69030;48.126;7.816;2024-01-30T14:37:51;3.00;;;2.17;;
79566;SDS011;69030;48.126;7.816;2024-01-30T14:40:17;3.88;;;2.08;;
79566;SDS011;69030;48.126;7.816;2024-01-30T14:42:44;3.80;;;2.03;;
79566;SDS011;69030;48.126;7.816;2024-01-30T14:45:10;5.28;;;2.75;;
79566;SDS011;69030;48.126;7.816;2024-01-30T14:47:37;4.70;;;2.08;;